Time;durP1;ratioP1;P1;durP2;ratioP2;P2;SDS_P1;SDS_P2;PMS_P1;PMS_P2;Temp;Humidity;BMP_temperature;BMP_pressure;BME280_temperature;BME280_humidity;BME280_pressure;Samples;Min_cycle;Max_cycle;Signal;HPM_P1;HPM_P2
2023/11/21 00:01:17;;;;;;;15.38;8.95;;;7.30;99.90;;;;;;4449755;28;656791;-73
2023/11/21 00:04:07;;;;;;;10.33;4.63;;;7.30;99.90;;;;;;4450145;28;656260;-73
2023/11/21 00:06:55;;;;;;;15.77;8.47;;;7.40;99.90;;;;;;4420832;27;656727;-73
2023/11/21 00:09:42;;;;;;;16.27;8.70;;;7.40;99.90;;;;;;4452911;28;656321;-73
2023/11/21 00:12:29;;;;;;;16.40;7.67;;;7.30;99.90;;;;;;4427352;28;656684;-73
2023/11/21 00:15:16;;;;;;;19.23;8.13;;;7.40;99.90;;;;;;4447300;28;656347;-73
2023/11/21 00:18:03;;;;;;;20.07;9.50;;;7.40;99.90;;;;;;4432837;28;657707;-73
2023/11/21 00:20:52;;;;;;;15.33;7.20;;;7.30;99.90;;;;;;4442362;28;657108;-73
2023/11/21 00:23:39;;;;;;;20.13;9.17;;;7.40;99.90;;;;;;4438104;28;657227;-73
2023/11/21 00:26:27;;;;;;;18.83;9.50;;;7.40;99.90;;;;;;4442009;28;656491;-73
2023/11/21 00:29:17;;;;;;;16.93;10.10;;;7.30;99.90;;;;;;4463242;28;656712;-73
2023/11/21 00:32:05;;;;;;;16.33;9.33;;;7.30;99.90;;;;;;4435736;28;657657;-73
2023/11/21 00:34:54;;;;;;;17.97;9.67;;;7.40;99.90;;;;;;4436085;28;656997;-73
2023/11/21 00:37:43;;;;;;;15.60;9.50;;;7.30;99.90;;;;;;4461000;28;656813;-73
2023/11/21 00:40:30;;;;;;;17.97;9.50;;;7.30;99.90;;;;;;4440433;28;656918;-73
2023/11/21 00:43:17;;;;;;;15.48;9.43;;;7.40;99.90;;;;;;4443076;27;656542;-73
2023/11/21 00:46:07;;;;;;;16.90;9.53;;;7.40;99.90;;;;;;4449646;28;656711;-73
2023/11/21 00:48:54;;;;;;;18.47;9.57;;;7.30;99.90;;;;;;4435279;28;656855;-73
2023/11/21 00:51:41;;;;;;;15.40;7.83;;;7.40;99.90;;;;;;4444834;28;656536;-73
2023/11/21 00:54:30;;;;;;;15.63;8.57;;;7.40;99.90;;;;;;4439801;27;657730;-73
2023/11/21 00:57:17;;;;;;;20.37;8.73;;;7.30;99.90;;;;;;4445412;27;657646;-73
2023/11/21 01:00:07;;;;;;;17.65;9.35;;;7.30;99.90;;;;;;4459694;28;656687;-73
2023/11/21 01:02:55;;;;;;;14.53;7.57;;;7.20;99.90;;;;;;4439664;27;656985;-73
2023/11/21 01:05:42;;;;;;;12.23;7.27;;;7.20;99.90;;;;;;4447441;28;656594;-72
2023/11/21 01:08:31;;;;;;;11.90;6.00;;;7.30;99.90;;;;;;4462343;27;656712;-73
2023/11/21 01:11:19;;;;;;;14.03;7.57;;;7.20;99.90;;;;;;4434116;27;656162;-73
2023/11/21 01:14:08;;;;;;;14.75;6.88;;;7.20;99.90;;;;;;4458001;27;656995;-73
2023/11/21 01:16:55;;;;;;;16.27;8.70;;;7.20;99.90;;;;;;4436470;27;657164;-73
2023/11/21 01:19:43;;;;;;;14.57;8.07;;;7.20;99.90;;;;;;4435415;27;657135;-73
2023/11/21 01:22:30;;;;;;;14.97;6.57;;;7.20;99.90;;;;;;4442883;28;657135;-73
2023/11/21 01:25:17;;;;;;;15.00;8.13;;;7.20;99.90;;;;;;4455512;27;656106;-74
2023/11/21 01:28:06;;;;;;;14.83;8.50;;;7.20;99.90;;;;;;4443630;28;657213;-73
2023/11/21 01:30:56;;;;;;;15.87;8.10;;;7.20;99.90;;;;;;4426600;28;656371;-73
2023/11/21 01:33:43;;;;;;;15.53;8.67;;;7.20;99.90;;;;;;4435648;27;657037;-73
2023/11/21 01:36:33;;;;;;;16.35;8.73;;;7.20;99.90;;;;;;4462832;27;657107;-73
2023/11/21 01:39:23;;;;;;;19.93;9.53;;;7.10;99.90;;;;;;4435192;28;657188;-73
2023/11/21 01:42:11;;;;;;;17.60;9.90;;;7.20;99.90;;;;;;4435702;27;657534;-73
2023/11/21 01:44:59;;;;;;;15.93;9.53;;;7.20;99.90;;;;;;4441854;27;656558;-73
2023/11/21 01:47:46;;;;;;;19.27;10.30;;;7.20;99.90;;;;;;4451047;28;657257;-73
2023/11/21 01:50:34;;;;;;;19.23;9.70;;;7.20;99.90;;;;;;4429012;28;657745;-73
2023/11/21 01:53:21;;;;;;;16.37;10.07;;;7.20;99.90;;;;;;4451944;28;657868;-73
2023/11/21 01:56:09;;;;;;;17.27;10.50;;;7.20;99.90;;;;;;4433132;28;657513;-73
2023/11/21 01:58:56;;;;;;;16.63;9.17;;;7.20;99.90;;;;;;4462837;27;657138;-73
2023/11/21 02:01:46;;;;;;;21.50;13.00;;;7.20;99.90;;;;;;4436032;28;656905;-73
2023/11/21 02:04:33;;;;;;;27.07;13.40;;;7.20;99.90;;;;;;4436215;27;657474;-73
2023/11/21 02:07:23;;;;;;;26.92;14.75;;;7.20;99.90;;;;;;4455053;28;658584;-74
2023/11/21 02:10:14;;;;;;;28.30;14.40;;;7.20;99.90;;;;;;4423897;28;657805;-73
2023/11/21 02:13:02;;;;;;;28.10;14.63;;;7.20;99.90;;;;;;4433764;27;657271;-73
2023/11/21 02:15:52;;;;;;;24.17;12.90;;;7.20;99.90;;;;;;4435486;27;658305;-73
2023/11/21 02:18:41;;;;;;;21.50;13.20;;;7.20;99.90;;;;;;4435572;27;658847;-73
2023/11/21 02:21:28;;;;;;;23.15;12.82;;;7.10;99.90;;;;;;4436103;27;657430;-73
2023/11/21 02:24:17;;;;;;;20.53;11.00;;;7.10;99.90;;;;;;4464020;27;658238;-73
2023/11/21 02:27:06;;;;;;;20.50;9.90;;;7.00;99.90;;;;;;4441645;27;658016;-73
2023/11/21 02:29:54;;;;;;;18.27;9.63;;;7.00;99.90;;;;;;4440832;27;656793;-73
2023/11/21 02:32:42;;;;;;;10.63;4.57;;;7.00;99.90;;;;;;4450413;27;656237;-73
2023/11/21 02:35:30;;;;;;;16.63;9.27;;;7.10;99.90;;;;;;4436282;27;658329;-73
2023/11/21 02:38:18;;;;;;;17.23;9.10;;;7.00;99.90;;;;;;4440251;27;657045;-73
2023/11/21 02:41:06;;;;;;;24.57;9.33;;;7.00;99.90;;;;;;4454594;27;658101;-73
2023/11/21 02:43:54;;;;;;;15.00;8.47;;;6.90;99.90;;;;;;4438605;27;656310;-73
2023/11/21 02:46:41;;;;;;;20.80;9.87;;;6.90;99.90;;;;;;4460610;28;656746;-73
2023/11/21 02:49:29;;;;;;;19.23;9.43;;;6.90;99.90;;;;;;4423336;28;657019;-74
2023/11/21 02:52:16;;;;;;;18.50;9.63;;;6.90;99.90;;;;;;4451367;27;656464;-74
2023/11/21 02:55:03;;;;;;;20.73;8.23;;;6.90;99.90;;;;;;4433026;27;656413;-73
2023/11/21 02:57:52;;;;;;;18.77;10.00;;;6.90;99.90;;;;;;4457331;27;657050;-74
2023/11/21 03:00:40;;;;;;;17.93;10.63;;;6.80;99.90;;;;;;4426763;28;658203;-73
2023/11/21 03:03:28;;;;;;;18.13;9.50;;;6.80;99.90;;;;;;4452779;28;658419;-73
2023/11/21 03:06:15;;;;;;;18.87;10.67;;;6.80;99.90;;;;;;4462757;28;656929;-73
2023/11/21 03:09:03;;;;;;;20.67;10.50;;;6.80;99.90;;;;;;4438223;28;657637;-73
2023/11/21 03:11:50;;;;;;;20.50;9.60;;;6.80;99.90;;;;;;4450798;27;658484;-73
2023/11/21 03:14:39;;;;;;;18.60;9.03;;;6.80;99.90;;;;;;4444088;27;656613;-73
2023/11/21 03:17:26;;;;;;;14.30;7.50;;;6.70;99.90;;;;;;4440484;28;656920;-72
2023/11/21 03:20:13;;;;;;;20.17;8.00;;;6.80;99.90;;;;;;4421931;28;656592;-72
2023/11/21 03:23:01;;;;;;;19.30;7.87;;;6.80;99.90;;;;;;4453537;28;657506;-73
2023/11/21 03:25:48;;;;;;;13.13;5.90;;;6.70;99.90;;;;;;4439358;28;656947;-73
2023/11/21 03:28:35;;;;;;;15.23;8.47;;;6.70;99.90;;;;;;4446354;28;657811;-73
2023/11/21 03:31:24;;;;;;;7.17;4.07;;;6.70;99.90;;;;;;4434227;28;656987;-73
2023/11/21 03:34:15;;;;;;;13.97;6.90;;;6.70;99.90;;;;;;4450152;28;655501;-72
2023/11/21 03:37:02;;;;;;;18.80;8.70;;;6.70;99.90;;;;;;4415666;27;656748;-73
2023/11/21 03:39:50;;;;;;;16.80;7.90;;;6.60;99.90;;;;;;4445443;28;656549;-73
2023/11/21 03:42:37;;;;;;;18.27;8.80;;;6.70;99.90;;;;;;4447846;28;657522;-73
2023/11/21 03:45:25;;;;;;;16.00;9.45;;;6.70;99.90;;;;;;4455265;28;656777;-73
2023/11/21 03:48:13;;;;;;;17.47;9.03;;;6.70;99.90;;;;;;4461906;28;657096;-73
2023/11/21 03:51:00;;;;;;;14.93;6.10;;;6.60;99.90;;;;;;4429516;28;656785;-73
2023/11/21 03:53:47;;;;;;;19.25;9.45;;;6.70;99.90;;;;;;4439061;28;656293;-73
2023/11/21 03:56:35;;;;;;;16.13;9.93;;;6.70;99.90;;;;;;4456930;28;656971;-73
2023/11/21 03:59:24;;;;;;;21.07;9.80;;;6.60;99.90;;;;;;4453319;28;656857;-73
2023/11/21 04:02:11;;;;;;;19.40;8.23;;;6.60;99.90;;;;;;4458203;28;656328;-73
2023/11/21 04:04:59;;;;;;;19.17;9.87;;;6.70;99.90;;;;;;4422292;28;656640;-73
2023/11/21 04:07:47;;;;;;;19.73;10.67;;;6.60;99.90;;;;;;4451316;28;656122;-73
2023/11/21 04:10:34;;;;;;;20.33;10.43;;;6.60;99.90;;;;;;4424998;28;657766;-73
2023/11/21 04:13:21;;;;;;;17.50;8.63;;;6.60;99.90;;;;;;4447225;28;657320;-73
2023/11/21 04:16:09;;;;;;;23.50;10.77;;;6.60;99.90;;;;;;4428559;28;656974;-73
2023/11/21 04:18:57;;;;;;;20.87;10.43;;;6.60;99.90;;;;;;4463832;27;657543;-73
2023/11/21 04:21:45;;;;;;;19.03;10.30;;;6.60;99.90;;;;;;4437209;27;658413;-73
2023/11/21 04:24:33;;;;;;;19.17;8.47;;;6.60;99.90;;;;;;4438853;27;658147;-73
2023/11/21 04:27:20;;;;;;;22.40;8.73;;;6.60;99.90;;;;;;4459661;27;657553;-73
2023/11/21 04:30:09;;;;;;;21.83;9.77;;;6.50;99.90;;;;;;4458127;27;656314;-73
2023/11/21 04:32:57;;;;;;;18.93;9.10;;;6.50;99.90;;;;;;4461100;27;657252;-73
2023/11/21 04:35:44;;;;;;;20.93;9.97;;;6.60;99.90;;;;;;4432064;28;656532;-73
2023/11/21 04:38:32;;;;;;;22.77;9.53;;;6.60;99.90;;;;;;4445099;28;657536;-73
2023/11/21 04:41:20;;;;;;;16.70;8.57;;;6.50;99.90;;;;;;4436506;27;656779;-73
2023/11/21 04:44:07;;;;;;;17.73;8.60;;;6.60;99.90;;;;;;4452034;27;656966;-73
2023/11/21 04:46:55;;;;;;;17.97;8.43;;;6.50;99.90;;;;;;4447323;28;656822;-73
2023/11/21 04:49:43;;;;;;;21.10;8.73;;;6.50;99.90;;;;;;4441045;28;656719;-73
2023/11/21 04:52:30;;;;;;;12.33;5.83;;;6.50;99.90;;;;;;4463322;28;657622;-73
2023/11/21 04:55:19;;;;;;;10.80;4.22;;;6.60;99.90;;;;;;4445907;28;656463;-73
2023/11/21 04:58:08;;;;;;;14.23;7.93;;;6.60;99.90;;;;;;4457654;27;656567;-73
2023/11/21 05:00:55;;;;;;;12.43;6.40;;;6.60;99.90;;;;;;4428549;28;656932;-73
2023/11/21 05:03:43;;;;;;;16.90;7.53;;;6.70;99.90;;;;;;4457392;27;657136;-73
2023/11/21 05:06:30;;;;;;;15.20;7.33;;;6.60;99.90;;;;;;4464039;27;656720;-73
2023/11/21 05:09:18;;;;;;;11.17;5.17;;;6.60;99.90;;;;;;4451385;27;656255;-73
2023/11/21 05:12:08;;;;;;;14.43;7.20;;;6.60;99.90;;;;;;4458881;27;657524;-74
2023/11/21 05:14:55;;;;;;;10.07;4.53;;;6.60;99.90;;;;;;4430179;28;656710;-73
2023/11/21 05:17:43;;;;;;;16.33;7.33;;;6.60;99.90;;;;;;4428160;28;657021;-73
2023/11/21 05:20:30;;;;;;;12.68;6.95;;;6.60;99.90;;;;;;4465366;28;656970;-73
2023/11/21 05:23:18;;;;;;;14.63;6.67;;;6.60;99.90;;;;;;4435509;27;657187;-73
2023/11/21 05:26:05;;;;;;;15.40;6.57;;;6.60;99.90;;;;;;4459082;27;657383;-73
2023/11/21 05:28:54;;;;;;;17.07;6.90;;;6.60;99.90;;;;;;4451216;28;656408;-73
2023/11/21 05:31:41;;;;;;;18.23;6.43;;;6.60;99.90;;;;;;4458616;27;656766;-73
2023/11/21 05:34:28;;;;;;;10.43;5.73;;;6.60;99.90;;;;;;4440765;27;657028;-73
2023/11/21 05:37:15;;;;;;;18.37;7.40;;;6.60;99.90;;;;;;4464680;27;657099;-74
2023/11/21 05:40:05;;;;;;;13.35;7.22;;;6.60;99.90;;;;;;4434571;28;656590;-73
2023/11/21 05:42:52;;;;;;;14.40;7.07;;;6.60;99.90;;;;;;4439873;27;656786;-73
2023/11/21 05:45:41;;;;;;;16.63;7.37;;;6.60;99.90;;;;;;4464604;27;657065;-74
2023/11/21 05:48:28;;;;;;;18.80;8.27;;;6.60;99.90;;;;;;4443027;27;657570;-73
2023/11/21 05:51:16;;;;;;;19.00;8.33;;;6.60;99.90;;;;;;4464052;27;656816;-73
2023/11/21 05:54:03;;;;;;;15.73;8.13;;;6.60;99.90;;;;;;4427000;28;656936;-74
2023/11/21 05:56:50;;;;;;;13.60;8.50;;;6.60;99.90;;;;;;4460671;27;657118;-73
2023/11/21 05:59:37;;;;;;;19.33;9.53;;;6.50;99.90;;;;;;4442687;27;657455;-73
2023/11/21 06:02:27;;;;;;;14.27;8.30;;;6.60;99.90;;;;;;4461073;27;657091;-73
2023/11/21 06:05:14;;;;;;;13.87;8.53;;;6.60;99.90;;;;;;4441225;27;656671;-73
2023/11/21 06:08:01;;;;;;;15.70;8.77;;;6.60;99.90;;;;;;4450351;28;657070;-73
2023/11/21 06:10:49;;;;;;;16.53;9.63;;;6.60;99.90;;;;;;4432629;28;656664;-74
2023/11/21 06:13:36;;;;;;;16.00;9.47;;;6.60;99.90;;;;;;4456302;27;656841;-74
2023/11/21 06:16:24;;;;;;;18.20;9.50;;;6.60;99.90;;;;;;4433046;27;657036;-74
2023/11/21 06:19:12;;;;;;;17.73;10.67;;;6.60;99.90;;;;;;4439885;28;656835;-74
2023/11/21 06:22:01;;;;;;;21.50;12.77;;;6.50;99.90;;;;;;4430180;27;657963;-74
2023/11/21 06:24:48;;;;;;;23.17;13.17;;;6.50;99.90;;;;;;4434609;28;658230;-74
2023/11/21 06:27:38;;;;;;;26.48;14.63;;;6.50;99.90;;;;;;4455875;27;658676;-74
2023/11/21 06:30:25;;;;;;;25.50;14.17;;;6.60;99.90;;;;;;4439301;28;658919;-74
2023/11/21 06:33:13;;;;;;;25.63;12.33;;;6.50;99.90;;;;;;4446948;28;658439;-74
2023/11/21 06:36:02;;;;;;;29.90;13.97;;;6.50;99.90;;;;;;4450139;28;658358;-73
2023/11/21 06:38:49;;;;;;;27.60;15.80;;;6.50;99.90;;;;;;4436552;27;658474;-74
2023/11/21 06:41:38;;;;;;;27.27;15.80;;;6.50;99.90;;;;;;4446358;28;657382;-74
2023/11/21 06:44:26;;;;;;;27.77;16.13;;;6.50;99.90;;;;;;4425807;28;658495;-73
2023/11/21 06:47:13;;;;;;;28.97;16.40;;;6.50;99.90;;;;;;4422326;28;657763;-73
2023/11/21 06:50:00;;;;;;;24.43;12.87;;;6.50;99.90;;;;;;4444833;27;658629;-73
2023/11/21 06:52:49;;;;;;;25.08;13.98;;;6.50;99.90;;;;;;4435297;27;657497;-73
2023/11/21 06:55:36;;;;;;;28.57;13.57;;;6.60;99.90;;;;;;4464255;27;658244;-74
2023/11/21 06:58:24;;;;;;;21.27;11.63;;;6.50;99.90;;;;;;4435573;28;657501;-73
2023/11/21 07:01:11;;;;;;;25.23;13.70;;;6.60;99.90;;;;;;4464578;27;657503;-74
2023/11/21 07:03:58;;;;;;;19.77;11.63;;;6.60;99.90;;;;;;4436932;27;657614;-73
2023/11/21 07:06:45;;;;;;;23.97;14.57;;;6.50;99.90;;;;;;4453769;28;658338;-73
2023/11/21 07:09:34;;;;;;;21.20;11.20;;;6.60;99.90;;;;;;4431557;28;657758;-73
2023/11/21 07:12:23;;;;;;;20.43;12.60;;;6.60;99.90;;;;;;4446182;28;657768;-74
2023/11/21 07:15:11;;;;;;;21.97;11.37;;;6.60;99.90;;;;;;4426355;28;658167;-73
2023/11/21 07:17:58;;;;;;;18.30;11.37;;;6.60;99.90;;;;;;4427504;28;657502;-74
2023/11/21 07:20:45;;;;;;;19.50;10.97;;;6.60;99.90;;;;;;4460168;27;657796;-74
2023/11/21 07:23:32;;;;;;;19.00;10.93;;;6.60;99.90;;;;;;4448875;27;657866;-74
2023/11/21 07:26:21;;;;;;;17.37;10.10;;;6.60;99.90;;;;;;4456068;28;658167;-73
2023/11/21 07:29:09;;;;;;;20.33;10.97;;;6.50;99.90;;;;;;4424966;28;657304;-73
2023/11/21 07:31:56;;;;;;;18.90;9.97;;;6.60;99.90;;;;;;4457347;28;657417;-73
2023/11/21 07:34:43;;;;;;;18.00;10.07;;;6.50;99.90;;;;;;4421845;28;656730;-74
2023/11/21 07:37:30;;;;;;;21.60;10.80;;;6.50;99.90;;;;;;4454024;28;658399;-74
2023/11/21 07:40:17;;;;;;;15.98;10.18;;;6.60;99.90;;;;;;4443231;27;658255;-74
2023/11/21 07:43:06;;;;;;;17.53;9.70;;;6.60;99.90;;;;;;4462431;28;657848;-74
2023/11/21 07:45:53;;;;;;;21.83;12.30;;;6.60;99.90;;;;;;4428598;28;656755;-73
2023/11/21 07:48:41;;;;;;;23.85;12.68;;;6.60;99.90;;;;;;4451771;28;659039;-73
2023/11/21 07:51:29;;;;;;;21.67;11.73;;;6.60;99.90;;;;;;4432637;27;657917;-73
2023/11/21 07:54:16;;;;;;;25.60;14.70;;;6.60;99.90;;;;;;4462931;27;658539;-73
2023/11/21 07:57:04;;;;;;;20.27;10.53;;;6.60;99.90;;;;;;4444138;27;657495;-74
2023/11/21 07:59:53;;;;;;;31.37;17.00;;;6.60;99.90;;;;;;4468115;28;657711;-73
2023/11/21 08:02:41;;;;;;;38.57;19.20;;;6.60;99.90;;;;;;4439562;27;658381;-73
2023/11/21 08:05:29;;;;;;;38.97;18.57;;;6.50;99.90;;;;;;4423464;28;658127;-73
2023/11/21 08:08:18;;;;;;;38.17;18.10;;;6.60;99.90;;;;;;4456966;27;657822;-73
2023/11/21 08:11:08;;;;;;;46.37;19.93;;;6.60;99.90;;;;;;4426307;28;657854;-76
2023/11/21 08:13:55;;;;;;;41.50;18.10;;;6.60;99.90;;;;;;4419072;28;658106;-73
2023/11/21 08:16:44;;;;;;;50.07;23.00;;;6.60;99.90;;;;;;4431283;28;657362;-73
2023/11/21 08:19:32;;;;;;;47.53;22.23;;;6.60;99.90;;;;;;4449154;28;657593;-73
2023/11/21 08:22:20;;;;;;;48.20;22.43;;;6.50;99.90;;;;;;4426575;28;658032;-74
2023/11/21 08:25:08;;;;;;;50.75;22.58;;;6.60;99.90;;;;;;4416704;28;657762;-73
2023/11/21 08:27:55;;;;;;;51.20;23.10;;;6.60;99.90;;;;;;4435277;27;658479;-73
2023/11/21 08:30:42;;;;;;;41.00;19.08;;;6.60;99.90;;;;;;4416708;28;658126;-74
2023/11/21 08:33:31;;;;;;;48.63;23.33;;;6.70;99.90;;;;;;4432985;28;658388;-73
2023/11/21 08:36:18;;;;;;;42.42;21.35;;;6.60;99.90;;;;;;4408727;28;658529;-74
2023/11/21 08:39:05;;;;;;;43.60;20.63;;;6.80;99.90;;;;;;4430175;28;658366;-74
2023/11/21 08:41:53;;;;;;;48.17;20.93;;;6.80;99.90;;;;;;4429017;27;657433;-73
2023/11/21 08:44:41;;;;;;;42.27;20.23;;;6.90;99.90;;;;;;4441823;28;657605;-73
2023/11/21 08:47:28;;;;;;;39.87;20.00;;;6.90;99.90;;;;;;4415284;28;658165;-73
2023/11/21 08:50:17;;;;;;;34.47;17.63;;;6.80;99.90;;;;;;4436078;28;657732;-74
2023/11/21 08:53:05;;;;;;;40.67;21.30;;;6.90;99.90;;;;;;4416721;28;658642;-74
2023/11/21 08:55:53;;;;;;;41.67;20.77;;;7.00;99.90;;;;;;4426863;28;658377;-74
2023/11/21 08:58:41;;;;;;;41.73;19.80;;;7.00;99.90;;;;;;4447091;28;658353;-74
2023/11/21 09:01:28;;;;;;;37.17;19.87;;;7.00;99.90;;;;;;4416545;27;657442;-76
2023/11/21 09:04:15;;;;;;;33.37;16.00;;;7.10;99.90;;;;;;4449034;28;658072;-76
2023/11/21 09:07:05;;;;;;;47.93;22.67;;;7.10;99.90;;;;;;4419933;28;657379;-75
2023/11/21 09:09:52;;;;;;;44.67;21.37;;;7.00;99.90;;;;;;4428157;28;657421;-74
2023/11/21 09:12:40;;;;;;;39.23;20.80;;;7.00;99.90;;;;;;4428742;28;657818;-74
2023/11/21 09:15:27;;;;;;;36.37;17.57;;;7.00;99.90;;;;;;4422273;28;657816;-74
2023/11/21 09:18:15;;;;;;;42.13;20.67;;;7.00;99.90;;;;;;4433957;28;657507;-76
2023/11/21 09:21:04;;;;;;;42.77;18.97;;;6.90;99.90;;;;;;4427155;28;657332;-75
2023/11/21 09:23:54;;;;;;;39.80;20.50;;;6.90;99.90;;;;;;4429376;28;657778;-75
2023/11/21 09:26:41;;;;;;;46.20;21.83;;;7.10;99.90;;;;;;4408997;28;657933;-74
2023/11/21 09:29:28;;;;;;;37.27;19.93;;;7.20;99.90;;;;;;4411411;28;658306;-74
2023/11/21 09:32:16;;;;;;;37.57;20.53;;;7.20;99.90;;;;;;4424309;28;658252;-75
2023/11/21 09:35:03;;;;;;;35.77;18.20;;;7.30;99.90;;;;;;4408070;28;659007;-74
2023/11/21 09:37:52;;;;;;;40.33;19.55;;;7.20;99.90;;;;;;4428199;28;657945;-73
2023/11/21 09:40:40;;;;;;;20.00;9.30;;;7.30;99.90;;;;;;4411785;28;657741;-73
2023/11/21 09:43:27;;;;;;;34.13;17.53;;;7.20;99.90;;;;;;4413902;28;657140;-74
2023/11/21 09:46:19;;;;;;;27.67;13.93;;;7.30;99.90;;;;;;4427160;28;657508;-75
2023/11/21 09:49:08;;;;;;;27.40;14.73;;;7.20;99.90;;;;;;4405332;28;657413;-74
2023/11/21 09:51:57;;;;;;;25.20;13.40;;;7.00;99.90;;;;;;4403813;28;658066;-74
2023/11/21 09:54:44;;;;;;;23.33;13.60;;;7.10;99.90;;;;;;4408803;28;658777;-74
2023/11/21 09:57:32;;;;;;;25.73;13.87;;;6.90;99.90;;;;;;4430404;28;657647;-74
2023/11/21 10:00:23;;;;;;;27.57;13.90;;;6.90;99.90;;;;;;4408496;28;658253;-75
2023/11/21 10:03:10;;;;;;;28.17;13.80;;;6.90;99.90;;;;;;4405319;28;658453;-74
2023/11/21 10:05:59;;;;;;;23.77;12.87;;;6.90;99.90;;;;;;4407764;28;657638;-75
2023/11/21 10:08:47;;;;;;;25.70;14.33;;;6.90;99.90;;;;;;4429109;28;658245;-74
2023/11/21 10:11:34;;;;;;;29.90;15.73;;;6.80;99.90;;;;;;4409337;28;658393;-74
2023/11/21 10:14:24;;;;;;;31.47;13.80;;;6.80;99.90;;;;;;4417513;28;657372;-74
2023/11/21 10:17:13;;;;;;;25.93;14.23;;;6.80;99.90;;;;;;4426812;28;657703;-74
2023/11/21 10:20:00;;;;;;;23.27;12.70;;;6.90;99.90;;;;;;4407171;28;658333;-74
2023/11/21 10:22:48;;;;;;;28.00;12.70;;;7.00;99.90;;;;;;4421687;28;657282;-74
2023/11/21 10:25:36;;;;;;;19.93;10.40;;;7.00;99.90;;;;;;4434723;28;658816;-74
2023/11/21 10:28:23;;;;;;;18.53;10.10;;;7.10;99.90;;;;;;4406706;28;658166;-74
2023/11/21 10:31:13;;;;;;;19.87;9.90;;;7.10;99.90;;;;;;4425542;28;657676;-74
2023/11/21 10:34:14;;;;;;;18.83;10.77;;;7.20;99.90;;;;;;4406324;28;657468;-74
2023/11/21 10:37:03;;;;;;;22.37;11.70;;;7.30;99.90;;;;;;4402190;28;658922;-74
2023/11/21 10:39:51;;;;;;;24.53;11.17;;;7.40;99.90;;;;;;4406969;28;658930;-74
2023/11/21 10:42:38;;;;;;;23.03;11.83;;;7.40;99.90;;;;;;4401788;28;657989;-74
2023/11/21 10:45:25;;;;;;;17.83;9.43;;;7.40;99.90;;;;;;4425052;28;658227;-74
2023/11/21 10:48:16;;;;;;;24.10;12.73;;;7.50;99.90;;;;;;4401454;28;656946;-74
2023/11/21 10:51:09;;;;;;;27.33;14.23;;;7.40;99.90;;;;;;4410996;28;658111;-74
2023/11/21 10:53:56;;;;;;;24.43;13.97;;;7.20;99.90;;;;;;4407495;28;657212;-74
2023/11/21 10:56:44;;;;;;;28.83;14.80;;;7.20;99.90;;;;;;4404434;28;657969;-74
2023/11/21 10:59:31;;;;;;;33.93;14.23;;;7.20;99.90;;;;;;4424259;28;659279;-74
2023/11/21 11:02:22;;;;;;;32.00;15.77;;;7.20;99.90;;;;;;4407432;28;657531;-74
2023/11/21 11:05:11;;;;;;;18.73;8.20;;;7.20;99.90;;;;;;4403177;28;658760;-74
2023/11/21 11:08:01;;;;;;;24.57;11.57;;;7.40;99.90;;;;;;4412942;28;657204;-74
2023/11/21 11:10:51;;;;;;;22.23;12.47;;;7.40;99.90;;;;;;4404134;28;657874;-74
2023/11/21 11:13:38;;;;;;;24.43;12.23;;;7.50;99.90;;;;;;4404611;28;658148;-73
2023/11/21 11:16:26;;;;;;;24.23;13.83;;;7.40;99.90;;;;;;4406464;28;657721;-73
2023/11/21 11:19:13;;;;;;;30.73;13.13;;;7.30;99.90;;;;;;4401871;28;658188;-73
2023/11/21 11:22:07;;;;;;;25.20;12.68;;;7.30;99.90;;;;;;4426496;28;658470;-73
2023/11/21 11:25:05;;;;;;;24.87;12.83;;;7.10;99.90;;;;;;4378566;28;658103;-73
2023/11/21 11:27:55;;;;;;;23.20;12.17;;;7.00;99.90;;;;;;4404736;28;657861;-73
2023/11/21 11:30:48;;;;;;;20.37;11.73;;;7.10;99.90;;;;;;4423673;28;657823;-73
2023/11/21 11:33:39;;;;;;;24.80;13.20;;;7.20;99.90;;;;;;4402361;28;658207;-73
2023/11/21 11:36:30;;;;;;;18.87;11.43;;;7.10;99.90;;;;;;4399305;28;657622;-73
2023/11/21 11:39:31;;;;;;;26.53;13.30;;;7.20;99.90;;;;;;4387148;28;657720;-74
2023/11/21 11:42:19;;;;;;;25.97;12.80;;;7.10;99.90;;;;;;4404924;28;658114;-74
2023/11/21 11:45:19;;;;;;;26.73;13.43;;;7.00;99.90;;;;;;4432171;28;657562;-73
2023/11/21 11:48:06;;;;;;;22.97;13.03;;;6.90;99.90;;;;;;4392706;28;657980;-73
2023/11/21 11:51:04;;;;;;;23.23;11.97;;;6.90;99.90;;;;;;4397749;28;657612;-74
2023/11/21 11:53:52;;;;;;;24.87;12.60;;;6.90;99.90;;;;;;4397016;28;657729;-73
2023/11/21 11:56:41;;;;;;;27.27;13.07;;;6.90;99.90;;;;;;4399479;28;657936;-74
2023/11/21 11:59:28;;;;;;;25.87;12.83;;;6.90;99.90;;;;;;4400044;28;657368;-74
2023/11/21 12:02:16;;;;;;;23.93;11.17;;;6.90;99.90;;;;;;4423820;28;658982;-74
2023/11/21 12:05:04;;;;;;;20.77;11.00;;;6.90;99.90;;;;;;4404808;28;658505;-74
2023/11/21 12:07:52;;;;;;;21.53;12.20;;;6.90;99.90;;;;;;4425339;28;658036;-74
2023/11/21 12:10:40;;;;;;;16.33;8.97;;;7.00;99.90;;;;;;4415200;28;657883;-74
2023/11/21 12:13:29;;;;;;;19.93;12.20;;;7.00;99.90;;;;;;4436672;28;657217;-74
2023/11/21 12:16:16;;;;;;;20.27;11.73;;;7.00;99.90;;;;;;4446555;28;657368;-74
2023/11/21 12:19:03;;;;;;;20.13;10.80;;;6.90;99.90;;;;;;4427620;28;659802;-74
2023/11/21 12:21:52;;;;;;;20.20;10.80;;;7.00;99.90;;;;;;4458295;28;658143;-74
2023/11/21 12:24:39;;;;;;;15.20;8.80;;;7.00;99.90;;;;;;4434630;28;657653;-74
2023/11/21 12:27:26;;;;;;;19.17;10.77;;;6.90;99.90;;;;;;4457915;28;657249;-79
2023/11/21 12:30:15;;;;;;;16.57;9.67;;;7.00;99.90;;;;;;4423588;28;657718;-79
2023/11/21 12:33:03;;;;;;;16.00;10.10;;;7.00;99.90;;;;;;4436745;28;657203;-76
2023/11/21 12:35:52;;;;;;;13.07;8.37;;;7.00;99.90;;;;;;4460169;28;657706;-79
2023/11/21 12:38:39;;;;;;;20.43;11.30;;;7.10;99.90;;;;;;4439625;28;656786;-78
2023/11/21 12:41:26;;;;;;;14.13;9.10;;;7.60;99.90;;;;;;4441932;28;657829;-77
2023/11/21 12:44:15;;;;;;;13.83;8.13;;;8.00;99.90;;;;;;4434184;27;656791;-77
2023/11/21 12:47:05;;;;;;;14.30;8.10;;;7.80;99.90;;;;;;4436111;27;656374;-77
2023/11/21 12:49:53;;;;;;;12.13;5.85;;;7.60;99.90;;;;;;4437317;27;656377;-76
2023/11/21 12:52:40;;;;;;;14.00;7.00;;;7.70;99.90;;;;;;4456679;27;656860;-77
2023/11/21 12:55:30;;;;;;;13.03;7.70;;;7.60;99.90;;;;;;4442178;28;657196;-77
2023/11/21 12:58:20;;;;;;;16.63;6.70;;;7.50;99.90;;;;;;4443827;28;656844;-77
2023/11/21 13:01:11;;;;;;;10.13;5.50;;;7.30;99.90;;;;;;4448207;27;656868;-75
2023/11/21 13:04:00;;;;;;;7.63;3.90;;;7.50;99.90;;;;;;4430723;27;656303;-77
2023/11/21 13:06:47;;;;;;;11.90;5.33;;;7.60;99.90;;;;;;4464278;27;655986;-78
2023/11/21 13:09:34;;;;;;;9.93;5.20;;;7.40;99.90;;;;;;4431139;27;657044;-77
2023/11/21 13:12:25;;;;;;;7.13;3.80;;;7.60;99.90;;;;;;4463189;27;655314;-77
2023/11/21 13:15:14;;;;;;;4.47;2.20;;;7.70;99.90;;;;;;4433099;27;656037;-75
2023/11/21 13:18:01;;;;;;;12.50;4.77;;;7.60;99.90;;;;;;4455288;27;655999;-78
2023/11/21 13:20:50;;;;;;;9.67;4.37;;;7.60;99.90;;;;;;4430597;27;656876;-77
2023/11/21 13:23:38;;;;;;;9.17;4.47;;;7.30;99.90;;;;;;4447129;27;656703;-76
2023/11/21 13:26:25;;;;;;;9.63;4.87;;;7.20;99.90;;;;;;4451233;27;656167;-77
2023/11/21 13:29:13;;;;;;;11.17;4.40;;;7.20;99.90;;;;;;4440542;27;655947;-77
2023/11/21 13:32:01;;;;;;;11.87;5.10;;;7.20;99.90;;;;;;4450920;28;658317;-77
2023/11/21 13:34:49;;;;;;;8.83;4.53;;;7.00;99.90;;;;;;4426811;27;656598;-76
2023/11/21 13:37:37;;;;;;;10.07;4.80;;;7.00;99.90;;;;;;4450265;28;655898;-77
2023/11/21 13:40:26;;;;;;;12.50;5.00;;;6.90;99.90;;;;;;4430428;28;657684;-78
2023/11/21 13:43:15;;;;;;;8.63;4.60;;;6.90;99.90;;;;;;4440268;27;656510;-77
2023/11/21 13:46:10;;;;;;;9.83;4.50;;;6.90;99.90;;;;;;4451334;27;655692;-76
2023/11/21 13:48:57;;;;;;;11.03;4.80;;;6.90;99.90;;;;;;4422294;27;655875;-75
2023/11/21 13:51:47;;;;;;;10.97;5.17;;;6.90;99.90;;;;;;4463506;28;656811;-77
2023/11/21 13:54:36;;;;;;;12.47;4.60;;;6.80;99.90;;;;;;4437733;27;657053;-77
2023/11/21 13:57:23;;;;;;;11.33;5.50;;;6.90;99.90;;;;;;4434396;27;656590;-77
2023/11/21 14:00:36;;;;;;;10.93;5.40;;;6.80;99.90;;;;;;4463627;27;656921;-77
2023/11/21 14:03:21;;;;;;;13.13;4.97;;;6.80;99.90;;;;;;4426814;28;656859;-75
2023/11/21 14:06:14;;;;;;;11.43;5.33;;;6.80;99.90;;;;;;4428431;28;657022;-76
2023/11/21 14:09:05;;;;;;;10.17;5.43;;;6.80;99.90;;;;;;4439532;27;656902;-77
2023/11/21 14:11:56;;;;;;;13.40;6.03;;;6.80;99.90;;;;;;4433407;28;656489;-77
2023/11/21 14:14:44;;;;;;;14.93;6.03;;;6.80;99.90;;;;;;4437094;28;656640;-76
2023/11/21 14:17:31;;;;;;;15.23;5.90;;;6.80;99.90;;;;;;4464895;28;656065;-78
2023/11/21 14:20:20;;;;;;;16.25;6.03;;;6.80;99.90;;;;;;4438735;28;656685;-78